createdAt,value
2022-10-11T00:02:49.444Z,18.00
2022-10-11T00:07:52.371Z,16.69
2022-10-11T00:12:54.708Z,17.32
2022-10-11T00:17:57.082Z,16.72
2022-10-11T00:22:59.533Z,16.00
2022-10-11T00:28:01.881Z,15.70
2022-10-11T00:33:04.311Z,15.85
2022-10-11T00:38:06.660Z,17.21
2022-10-11T00:43:21.256Z,16.73
2022-10-11T00:48:43.515Z,15.90
2022-10-11T00:53:49.653Z,16.46
2022-10-11T00:58:53.167Z,17.23
2022-10-11T01:03:56.872Z,17.09
2022-10-11T01:09:00.207Z,17.73
2022-10-11T01:14:11.370Z,18.12
2022-10-11T01:19:16.510Z,17.72
2022-10-11T01:24:36.670Z,16.10
2022-10-11T01:30:08.380Z,15.18
2022-10-11T01:35:31.753Z,15.79
2022-10-11T01:40:47.437Z,15.96
2022-10-11T01:45:55.148Z,15.97
2022-10-11T01:50:59.387Z,15.22
2022-10-11T01:56:16.881Z,14.92
2022-10-11T02:01:41.261Z,15.33
2022-10-11T02:06:49.450Z,15.15
2022-10-11T02:11:56.885Z,15.22
2022-10-11T02:17:04.581Z,15.54
2022-10-11T02:22:12.753Z,16.10
2022-10-11T02:27:19.173Z,15.71
2022-10-11T02:32:24.159Z,15.71
2022-10-11T02:37:55.257Z,15.90
2022-10-11T02:43:17.762Z,16.02
2022-10-11T02:48:20.203Z,15.20
2022-10-11T02:53:23.798Z,14.92
2022-10-11T02:58:26.287Z,14.80
2022-10-11T03:03:28.688Z,14.75
2022-10-11T03:08:31.134Z,14.64
2022-10-11T03:13:33.566Z,15.38
2022-10-11T03:18:35.939Z,15.91
2022-10-11T03:23:38.261Z,15.48
2022-10-11T03:28:40.686Z,15.29
2022-10-11T03:33:43.018Z,15.16
2022-10-11T03:38:45.600Z,15.19
2022-10-11T03:43:48.183Z,15.21
2022-10-11T03:48:50.649Z,14.90
2022-10-11T03:53:53.156Z,15.05
2022-10-11T03:58:55.819Z,16.10
2022-10-11T04:03:58.307Z,16.66
2022-10-11T04:09:01.016Z,17.12
2022-10-11T04:14:03.686Z,16.85
2022-10-11T04:19:06.115Z,17.51
2022-10-11T04:24:10.653Z,17.97
2022-10-11T04:29:13.044Z,17.96
2022-10-11T04:34:15.659Z,18.15
2022-10-11T04:39:18.532Z,17.73
2022-10-11T04:44:20.908Z,17.98
2022-10-11T04:49:23.410Z,18.15
2022-10-11T04:54:26.221Z,18.28
2022-10-11T04:59:28.583Z,18.34
2022-10-11T05:04:31.019Z,18.42
2022-10-11T05:09:33.383Z,18.29
2022-10-11T05:14:35.836Z,18.39
2022-10-11T05:19:38.212Z,18.21
2022-10-11T05:24:40.603Z,18.07
2022-10-11T05:29:42.955Z,18.34
2022-10-11T05:34:45.456Z,18.42
2022-10-11T05:39:48.149Z,18.33
2022-10-11T05:44:50.594Z,18.34
2022-10-11T05:49:52.907Z,18.33
2022-10-11T05:54:55.299Z,18.25
2022-10-11T05:59:57.848Z,18.32
2022-10-11T06:05:00.352Z,18.25
2022-10-11T06:10:04.068Z,17.62
2022-10-11T06:15:07.533Z,17.40
2022-10-11T06:20:10.689Z,18.05
2022-10-11T06:25:13.099Z,18.19
2022-10-11T06:30:15.734Z,18.20
2022-10-11T06:35:18.450Z,18.33
2022-10-11T06:40:20.851Z,18.25
2022-10-11T06:45:23.308Z,18.24
2022-10-11T06:50:47.142Z,18.13
2022-10-11T06:55:48.359Z,18.20
2022-10-11T07:00:50.844Z,18.25
2022-10-11T07:05:53.248Z,18.09
2022-10-11T07:11:04.613Z,18.08
2022-10-11T07:16:09.916Z,18.27
2022-10-11T07:21:14.852Z,18.44
2022-10-11T07:26:18.359Z,18.13
2022-10-11T07:31:23.229Z,18.48
2022-10-11T07:36:27.434Z,18.08
2022-10-11T07:41:30.011Z,18.44
2022-10-11T07:46:32.829Z,18.81
2022-10-11T07:51:35.531Z,18.81
2022-10-11T07:56:39.966Z,18.93
2022-10-11T08:01:42.685Z,18.90
2022-10-11T08:06:47.719Z,18.97
2022-10-11T08:11:53.456Z,18.79
2022-10-11T08:16:55.914Z,19.01
2022-10-11T08:21:58.358Z,19.05
2022-10-11T08:27:00.769Z,19.10
2022-10-11T08:32:03.203Z,19.06
2022-10-11T08:37:05.858Z,19.06
2022-10-11T08:42:23.730Z,19.16
2022-10-11T08:47:42.833Z,19.14
2022-10-11T08:53:04.645Z,19.21
2022-10-11T08:58:09.378Z,19.23
2022-10-11T09:03:21.058Z,19.02
2022-10-11T09:08:32.638Z,18.75
2022-10-11T09:13:52.423Z,18.90
2022-10-11T09:18:57.795Z,18.95
2022-10-11T09:24:03.152Z,19.03
2022-10-11T09:29:19.022Z,18.98
2022-10-11T09:34:25.354Z,19.15
2022-10-11T09:39:58.866Z,19.19
2022-10-11T09:45:02.139Z,19.17
2022-10-11T09:50:26.305Z,19.41
2022-10-11T09:55:34.688Z,19.42
2022-10-11T10:00:38.556Z,19.44
2022-10-11T10:05:40.931Z,19.54
2022-10-11T10:10:48.691Z,19.23
2022-10-11T10:15:55.450Z,19.28
2022-10-11T10:20:59.716Z,19.40
2022-10-11T10:26:21.169Z,19.52
2022-10-11T10:31:29.527Z,19.60
2022-10-11T10:36:39.777Z,19.62
2022-10-11T10:41:42.244Z,19.59
2022-10-11T10:47:02.404Z,19.52
2022-10-11T10:52:28.986Z,19.73
2022-10-11T10:57:38.182Z,19.64
2022-10-11T11:02:58.844Z,19.79
2022-10-11T11:08:16.499Z,19.77
2022-10-11T11:13:43.911Z,19.80
2022-10-11T11:19:02.877Z,19.74
2022-10-11T11:24:13.598Z,19.74
2022-10-11T11:29:27.399Z,19.77
2022-10-11T11:34:37.162Z,19.56
2022-10-11T11:39:51.844Z,19.39
2022-10-11T11:44:54.540Z,19.76
2022-10-11T11:50:19.227Z,19.48
2022-10-11T11:55:37.835Z,19.54
2022-10-11T12:00:58.905Z,19.60
2022-10-11T12:06:13.476Z,19.56
2022-10-11T12:11:34.564Z,19.56
2022-10-11T12:17:07.025Z,19.50
2022-10-11T12:22:27.866Z,19.60
2022-10-11T12:27:42.175Z,19.60
2022-10-11T12:32:44.480Z,19.72
2022-10-11T12:38:02.619Z,19.72
2022-10-11T12:43:25.856Z,19.57
2022-10-11T12:48:45.333Z,19.66
2022-10-11T12:54:25.039Z,19.59
2022-10-11T12:59:23.541Z,19.54
2022-10-11T13:04:32.603Z,19.61
2022-10-11T13:09:41.057Z,19.51
2022-10-11T13:14:53.507Z,19.73
2022-10-11T13:20:09.369Z,20.17
2022-10-11T13:25:17.251Z,20.16
2022-10-11T13:30:29.672Z,20.44
2022-10-11T13:35:39.270Z,20.49
2022-10-11T13:40:41.772Z,20.43
2022-10-11T13:45:44.347Z,20.50
2022-10-11T13:51:16.931Z,20.71
2022-10-11T13:56:20.132Z,20.68
2022-10-11T14:01:34.946Z,20.47
2022-10-11T14:06:59.723Z,19.82
2022-10-11T14:12:43.270Z,19.28
2022-10-11T14:17:46.467Z,19.02
2022-10-11T14:22:53.530Z,18.83
2022-10-11T14:27:58.554Z,18.58
2022-10-11T14:33:02.716Z,18.42
2022-10-11T14:38:11.888Z,18.33
2022-10-11T14:43:14.261Z,18.24
2022-10-11T14:48:26.715Z,18.20
2022-10-11T14:53:46.089Z,18.04
2022-10-11T14:58:48.887Z,17.93
2022-10-11T15:03:51.636Z,17.99
2022-10-11T15:08:54.171Z,17.98
2022-10-11T15:13:56.772Z,17.93
2022-10-11T15:18:59.236Z,17.68
2022-10-11T15:24:01.842Z,17.80
2022-10-11T15:29:04.792Z,17.89
2022-10-11T15:34:07.278Z,17.91
2022-10-11T15:39:28.028Z,17.81
2022-10-11T15:44:30.474Z,17.76
2022-10-11T15:49:33.257Z,17.67
2022-10-11T15:54:35.716Z,17.61
2022-10-11T15:59:38.098Z,17.58
2022-10-11T16:04:40.775Z,17.51
2022-10-11T16:09:43.197Z,17.49
2022-10-11T16:14:47.310Z,17.39
2022-10-11T16:19:50.541Z,17.35
2022-10-11T16:24:53.024Z,17.33
2022-10-11T16:29:55.725Z,17.28
2022-10-11T16:34:58.550Z,17.17
2022-10-11T16:40:01.129Z,17.17
2022-10-11T16:45:03.922Z,17.09
2022-10-11T16:50:06.876Z,17.05
2022-10-11T16:55:09.713Z,16.99
2022-10-11T17:00:13.214Z,16.94
2022-10-11T17:05:15.758Z,16.93
2022-10-11T17:10:18.502Z,16.83
2022-10-11T17:15:21.903Z,16.87
2022-10-11T17:20:24.271Z,16.88
2022-10-11T17:25:26.760Z,16.77
2022-10-11T17:30:31.965Z,16.64
2022-10-11T17:35:36.962Z,16.45
2022-10-11T17:40:39.476Z,16.36
2022-10-11T17:45:42.079Z,16.29
2022-10-11T17:50:49.640Z,16.14
2022-10-11T17:55:54.245Z,16.05
2022-10-11T18:01:00.402Z,15.86
2022-10-11T18:06:07.717Z,15.97
2022-10-11T18:11:12.531Z,15.77
2022-10-11T18:16:17.196Z,15.70
2022-10-11T18:21:20.008Z,15.57
2022-10-11T18:26:27.997Z,15.86
2022-10-11T18:31:35.144Z,16.03
2022-10-11T18:36:38.948Z,16.18
2022-10-11T18:41:44.427Z,16.18
2022-10-11T18:46:48.481Z,16.10
2022-10-11T18:51:51.091Z,16.16
2022-10-11T18:56:53.670Z,16.30
2022-10-11T19:01:56.032Z,16.30
2022-10-11T19:06:58.486Z,16.16
2022-10-11T19:12:00.930Z,15.89
2022-10-11T19:17:03.366Z,16.07
2022-10-11T19:22:06.487Z,16.16
2022-10-11T19:27:08.820Z,16.04
2022-10-11T19:32:11.290Z,16.22
2022-10-11T19:37:14.420Z,16.29
2022-10-11T19:42:16.936Z,16.30
2022-10-11T19:47:19.525Z,16.31
2022-10-11T19:52:22.067Z,16.29
2022-10-11T19:57:24.492Z,16.32
2022-10-11T20:02:26.913Z,16.30
2022-10-11T20:07:29.532Z,16.20
2022-10-11T20:12:33.053Z,16.19
2022-10-11T20:17:48.499Z,16.19
2022-10-11T20:22:51.176Z,16.21
2022-10-11T20:27:53.521Z,16.29
2022-10-11T20:32:55.861Z,16.27
2022-10-11T20:37:58.258Z,16.25
2022-10-11T20:43:00.693Z,16.21
2022-10-11T20:48:03.041Z,16.19
2022-10-11T20:53:05.469Z,16.10
2022-10-11T20:58:07.862Z,16.08
2022-10-11T21:03:10.993Z,16.11
2022-10-11T21:08:13.733Z,16.12
2022-10-11T21:13:16.116Z,16.15
2022-10-11T21:18:19.059Z,16.13
2022-10-11T21:23:21.740Z,16.18
2022-10-11T21:28:24.212Z,16.17
2022-10-11T21:33:26.858Z,16.15
2022-10-11T21:38:29.206Z,16.13
2022-10-11T21:43:31.817Z,16.10
2022-10-11T21:48:34.162Z,16.08
2022-10-11T21:53:37.029Z,16.10
2022-10-11T21:58:39.627Z,16.09
2022-10-11T22:03:42.061Z,16.07
2022-10-11T22:08:44.574Z,16.01
2022-10-11T22:13:47.171Z,15.99
2022-10-11T22:18:49.851Z,16.05
2022-10-11T22:23:53.937Z,16.97
2022-10-11T22:28:56.839Z,17.27
2022-10-11T22:34:00.602Z,17.46
2022-10-11T22:39:07.769Z,17.51
2022-10-11T22:44:10.911Z,17.02
2022-10-11T22:49:13.225Z,16.78
2022-10-11T22:54:15.831Z,16.64
2022-10-11T22:59:18.379Z,16.37
2022-10-11T23:04:21.001Z,17.39
2022-10-11T23:09:26.587Z,17.74
2022-10-11T23:14:28.939Z,17.07
2022-10-11T23:19:31.335Z,15.86
2022-10-11T23:24:33.693Z,15.62
2022-10-11T23:29:40.051Z,15.33
2022-10-11T23:34:42.708Z,15.08
2022-10-11T23:39:45.597Z,14.90
2022-10-11T23:44:48.175Z,14.50
2022-10-11T23:49:51.795Z,14.19
2022-10-11T23:54:54.107Z,14.15
2022-10-11T23:59:56.500Z,14.82
